createdAt,value
2016-05-02T00:00:26.008Z,1022.08
2016-05-02T00:01:26.011Z,1022.11
2016-05-02T00:02:26.014Z,1022.07
2016-05-02T00:03:26.002Z,1022.06
2016-05-02T00:04:26.004Z,1022.02
2016-05-02T00:05:26.194Z,1022.04
2016-05-02T00:06:26.197Z,1022.01
2016-05-02T00:07:26.184Z,1022.05
2016-05-02T00:08:26.187Z,1022.08
2016-05-02T00:09:26.174Z,1022.04
2016-05-02T00:10:25.973Z,1022.02
2016-05-02T00:11:26.179Z,1022.1
2016-05-02T00:12:25.963Z,1022.05
2016-05-02T00:13:25.965Z,1022.06
2016-05-02T00:14:25.952Z,1022.06
2016-05-02T00:15:25.940Z,1022.04
2016-05-02T00:16:26.146Z,1022.04
2016-05-02T00:17:26.148Z,1022.06
2016-05-02T00:18:26.136Z,1022.02
2016-05-02T00:19:26.138Z,1022.07
2016-05-02T00:20:25.922Z,1022.03
2016-05-02T00:21:26.127Z,1022.02
2016-05-02T00:22:26.115Z,1022.02
2016-05-02T00:23:26.117Z,1022.06
2016-05-02T00:24:25.902Z,1022.04
2016-05-02T00:25:25.905Z,1022.06
2016-05-02T00:26:25.907Z,1022.02
2016-05-02T00:27:26.096Z,1022.03
2016-05-02T00:28:26.083Z,1022.01
2016-05-02T00:29:25.884Z,1022.06
2016-05-02T00:30:26.074Z,1022.05
2016-05-02T00:31:26.092Z,1022.04
2016-05-02T00:32:25.860Z,1022.07
2016-05-02T00:33:25.863Z,1022.08
2016-05-02T00:34:26.053Z,1022.04
2016-05-02T00:35:25.852Z,1022.08
2016-05-02T00:36:25.934Z,1022.04
2016-05-02T00:37:26.046Z,1022.06
2016-05-02T00:38:26.048Z,1022.03
2016-05-02T00:39:25.832Z,1022.06
2016-05-02T00:40:26.022Z,1022.05
2016-05-02T00:41:25.823Z,1022.04
2016-05-02T00:42:26.028Z,1022.02
2016-05-02T00:43:26.015Z,1022.06
2016-05-02T00:44:26.001Z,1022.01
2016-05-02T00:45:26.004Z,1021.99
2016-05-02T00:46:25.804Z,1021.96
2016-05-02T00:47:25.994Z,1021.97
2016-05-02T00:48:25.997Z,1021.97
2016-05-02T00:49:25.984Z,1021.92
2016-05-02T00:50:25.987Z,1021.93
2016-05-02T00:51:27.099Z,1021.94
2016-05-02T00:52:25.977Z,1021.91
2016-05-02T00:53:25.761Z,1021.93
2016-05-02T00:54:25.763Z,1021.94
2016-05-02T00:55:25.953Z,1021.91
2016-05-02T00:56:25.956Z,1021.94
2016-05-02T00:57:25.958Z,1021.91
2016-05-02T00:58:25.743Z,1021.9
2016-05-02T00:59:25.730Z,1021.88
2016-05-02T01:00:25.935Z,1021.9
2016-05-02T01:01:25.922Z,1021.87
2016-05-02T01:02:25.934Z,1021.9
2016-05-02T01:03:25.966Z,1021.88
2016-05-02T01:04:26.013Z,1021.9
2016-05-02T01:05:25.841Z,1021.87
2016-05-02T01:06:26.325Z,1021.89
2016-05-02T01:07:25.912Z,1021.86
2016-05-02T01:08:26.135Z,1021.91
2016-05-02T01:09:26.138Z,1021.88
2016-05-02T01:10:25.954Z,1021.93
2016-05-02T01:11:26.160Z,1021.98
2016-05-02T01:12:26.177Z,1021.92
2016-05-02T01:13:26.170Z,1021.94
2016-05-02T01:14:26.178Z,1021.95
2016-05-02T01:15:26.171Z,1021.95
2016-05-02T01:16:26.180Z,1022
2016-05-02T01:17:26.171Z,1021.96
2016-05-02T01:18:25.973Z,1021.96
2016-05-02T01:19:25.962Z,1021.96
2016-05-02T01:20:25.967Z,1021.91
2016-05-02T01:21:25.955Z,1021.96
2016-05-02T01:22:26.163Z,1021.88
2016-05-02T01:23:26.151Z,1021.93
2016-05-02T01:24:35.170Z,1021.91
2016-05-02T01:25:26.143Z,1021.89
2016-05-02T01:26:25.942Z,1021.88
2016-05-02T01:27:26.149Z,1021.88
2016-05-02T01:28:26.136Z,1021.88
2016-05-02T01:29:25.921Z,1021.87
2016-05-02T01:30:25.924Z,1021.89
2016-05-02T01:31:26.131Z,1021.84
2016-05-02T01:32:26.117Z,1021.84
2016-05-02T01:33:26.104Z,1021.87
2016-05-02T01:34:26.107Z,1021.87
2016-05-02T01:35:26.094Z,1021.83
2016-05-02T01:36:26.097Z,1021.85
2016-05-02T01:37:26.084Z,1021.88
2016-05-02T01:38:26.087Z,1021.85
2016-05-02T01:39:25.886Z,1021.85
2016-05-02T01:40:26.077Z,1021.82
2016-05-02T01:41:25.860Z,1021.82
2016-05-02T01:42:25.847Z,1021.81
2016-05-02T01:43:26.053Z,1021.8
2016-05-02T01:44:25.853Z,1021.8
2016-05-02T01:45:25.840Z,1021.79
2016-05-02T01:46:26.046Z,1021.83
2016-05-02T01:47:25.830Z,1021.8
2016-05-02T01:48:26.035Z,1021.81
2016-05-02T01:49:25.819Z,1021.77
2016-05-02T01:50:26.025Z,1021.77
2016-05-02T01:51:26.013Z,1021.75
2016-05-02T01:52:25.796Z,1021.77
2016-05-02T01:53:26.002Z,1021.76
2016-05-02T01:54:26.004Z,1021.72
2016-05-02T01:55:25.992Z,1021.73
2016-05-02T01:56:25.995Z,1021.73
2016-05-02T01:57:25.982Z,1021.74
2016-05-02T01:58:25.765Z,1021.69
2016-05-02T01:59:25.971Z,1021.71
2016-05-02T02:00:25.974Z,1021.7
2016-05-02T02:01:25.758Z,1021.7
2016-05-02T02:02:25.948Z,1021.68
2016-05-02T02:03:25.951Z,1021.69
2016-05-02T02:04:25.937Z,1021.63
2016-05-02T02:05:25.737Z,1021.63
2016-05-02T02:06:25.943Z,1021.62
2016-05-02T02:07:25.930Z,1021.63
2016-05-02T02:08:25.714Z,1021.59
2016-05-02T02:09:25.717Z,1021.57
2016-05-02T02:10:25.907Z,1021.57
2016-05-02T02:11:25.910Z,1021.53
2016-05-02T02:12:25.897Z,1021.58
2016-05-02T02:13:25.697Z,1021.57
2016-05-02T02:14:25.683Z,1021.56
2016-05-02T02:15:25.889Z,1021.53
2016-05-02T02:16:25.673Z,1021.53
2016-05-02T02:17:25.879Z,1021.51
2016-05-02T02:18:25.663Z,1021.47
2016-05-02T02:19:25.650Z,1021.48
2016-05-02T02:20:25.855Z,1021.48
2016-05-02T02:21:25.655Z,1021.51
2016-05-02T02:22:25.846Z,1021.48
2016-05-02T02:23:25.848Z,1021.51
2016-05-02T02:24:25.836Z,1021.49
2016-05-02T02:25:25.827Z,1021.5
2016-05-02T02:26:25.829Z,1021.47
2016-05-02T02:27:25.666Z,1021.46
2016-05-02T02:28:25.810Z,1021.46
2016-05-02T02:29:25.812Z,1021.5
2016-05-02T02:30:25.799Z,1021.47
2016-05-02T02:31:25.802Z,1021.45
2016-05-02T02:32:25.790Z,1021.47
2016-05-02T02:33:25.792Z,1021.48
2016-05-02T02:34:25.779Z,1021.53
2016-05-02T02:35:25.797Z,1021.51
2016-05-02T02:36:25.769Z,1021.51
2016-05-02T02:37:25.772Z,1021.52
2016-05-02T02:38:25.555Z,1021.49
2016-05-02T02:39:25.542Z,1021.51
2016-05-02T02:40:25.545Z,1021.46
2016-05-02T02:41:25.736Z,1021.51
2016-05-02T02:42:25.535Z,1021.46
2016-05-02T02:43:25.725Z,1021.47
2016-05-02T02:44:25.727Z,1021.47
2016-05-02T02:45:25.714Z,1021.45
2016-05-02T02:46:25.717Z,1021.43
2016-05-02T02:47:25.502Z,1021.42
2016-05-02T02:48:25.504Z,1021.42
2016-05-02T02:49:25.694Z,1021.39
2016-05-02T02:50:25.494Z,1021.37
2016-05-02T02:51:25.481Z,1021.39
2016-05-02T02:52:25.671Z,1021.37
2016-05-02T02:53:25.471Z,1021.37
2016-05-02T02:54:25.661Z,1021.38
2016-05-02T02:55:25.663Z,1021.4
2016-05-02T02:56:25.448Z,1021.39
2016-05-02T02:57:25.653Z,1021.39
2016-05-02T02:58:25.640Z,1021.4
2016-05-02T02:59:25.425Z,1021.4
2016-05-02T03:00:25.443Z,1021.36
2016-05-02T03:01:25.632Z,1021.37
2016-05-02T03:02:25.417Z,1021.36
2016-05-02T03:03:25.404Z,1021.35
2016-05-02T03:04:25.626Z,1021.39
2016-05-02T03:05:25.598Z,1021.36
2016-05-02T03:06:25.396Z,1021.36
2016-05-02T03:07:25.384Z,1021.33
2016-05-02T03:08:25.590Z,1021.33
2016-05-02T03:09:25.576Z,1021.35
2016-05-02T03:10:25.376Z,1021.32
2016-05-02T03:11:25.567Z,1021.35
2016-05-02T03:12:25.570Z,1021.29
2016-05-02T03:13:25.556Z,1021.26
2016-05-02T03:14:25.339Z,1021.27
2016-05-02T03:15:25.545Z,1021.27
2016-05-02T03:16:25.342Z,1021.23
2016-05-02T03:17:25.330Z,1021.22
2016-05-02T03:18:25.317Z,1021.25
2016-05-02T03:19:25.303Z,1021.26
2016-05-02T03:20:25.512Z,1021.28
2016-05-02T03:21:25.293Z,1021.28
2016-05-02T03:22:25.297Z,1021.25
2016-05-02T03:23:25.486Z,1021.23
2016-05-02T03:24:25.489Z,1021.19
2016-05-02T03:25:25.476Z,1021.22
2016-05-02T03:26:25.276Z,1021.2
2016-05-02T03:27:25.466Z,1021.22
2016-05-02T03:28:25.249Z,1021.25
2016-05-02T03:29:25.455Z,1021.25
2016-05-02T03:30:25.443Z,1021.23
2016-05-02T03:31:25.243Z,1021.22
2016-05-02T03:32:25.432Z,1021.21
2016-05-02T03:33:25.232Z,1021.2
2016-05-02T03:34:25.218Z,1021.22
2016-05-02T03:35:25.206Z,1021.17
2016-05-02T03:36:25.412Z,1021.23
2016-05-02T03:37:25.399Z,1021.17
2016-05-02T03:38:25.198Z,1021.21
2016-05-02T03:39:25.186Z,1021.2
2016-05-02T03:40:25.376Z,1021.21
2016-05-02T03:41:25.378Z,1021.19
2016-05-02T03:42:25.365Z,1021.23
2016-05-02T03:43:25.367Z,1021.21
2016-05-02T03:44:25.355Z,1021.21
2016-05-02T03:45:25.358Z,1021.16
2016-05-02T03:46:25.345Z,1021.2
2016-05-02T03:47:25.348Z,1021.18
2016-05-02T03:48:25.335Z,1021.2
2016-05-02T03:49:25.338Z,1021.16
2016-05-02T03:50:25.324Z,1021.14
2016-05-02T03:51:25.108Z,1021.17
2016-05-02T03:52:25.111Z,1021.13
2016-05-02T03:53:25.099Z,1021.15
2016-05-02T03:54:25.101Z,1021.15
2016-05-02T03:55:25.291Z,1021.12
2016-05-02T03:56:25.278Z,1021.12
2016-05-02T03:57:25.078Z,1021.12
2016-05-02T03:58:25.269Z,1021.06
2016-05-02T03:59:25.271Z,1021.09
2016-05-02T04:00:25.055Z,1021.06
2016-05-02T04:01:25.041Z,1021.07
2016-05-02T04:02:25.248Z,1021.08
2016-05-02T04:03:25.235Z,1021.05
2016-05-02T04:04:25.019Z,1021.11
2016-05-02T04:05:25.021Z,1021.12
2016-05-02T04:06:25.212Z,1021.09
2016-05-02T04:07:25.215Z,1021.09
2016-05-02T04:08:25.201Z,1021.12
2016-05-02T04:09:25.001Z,1021.12
2016-05-02T04:10:25.190Z,1021.09
2016-05-02T04:11:25.193Z,1021.12
2016-05-02T04:12:24.978Z,1021.11
2016-05-02T04:13:25.168Z,1021.13
2016-05-02T04:14:25.170Z,1021.11
2016-05-02T04:15:25.158Z,1021.11
2016-05-02T04:16:24.942Z,1021.09
2016-05-02T04:17:24.944Z,1021.11
2016-05-02T04:18:24.947Z,1021.17
2016-05-02T04:19:25.137Z,1021.15
2016-05-02T04:20:24.921Z,1021.17
2016-05-02T04:21:25.127Z,1021.15
2016-05-02T04:22:25.114Z,1021.12
2016-05-02T04:23:25.116Z,1021.14
2016-05-02T04:24:25.103Z,1021.18
2016-05-02T04:25:25.091Z,1021.14
2016-05-02T04:26:24.874Z,1021.22
2016-05-02T04:27:24.877Z,1021.18
2016-05-02T04:28:24.864Z,1021.2
2016-05-02T04:29:25.070Z,1021.2
2016-05-02T04:30:24.869Z,1021.21
2016-05-02T04:31:25.060Z,1021.25
2016-05-02T04:32:24.843Z,1021.2
2016-05-02T04:33:24.831Z,1021.18
2016-05-02T04:34:25.037Z,1021.24
2016-05-02T04:35:24.821Z,1021.22
2016-05-02T04:36:25.026Z,1021.23
2016-05-02T04:37:25.013Z,1021.23
2016-05-02T04:38:25.001Z,1021.2
2016-05-02T04:39:25.004Z,1021.24
2016-05-02T04:40:24.990Z,1021.25
2016-05-02T04:41:24.773Z,1021.28
2016-05-02T04:42:24.980Z,1021.23
2016-05-02T04:43:24.984Z,1021.22
2016-05-02T04:44:24.970Z,1021.28
2016-05-02T04:45:24.754Z,1021.26
2016-05-02T04:46:24.959Z,1021.24
2016-05-02T04:47:24.947Z,1021.29
2016-05-02T04:48:24.731Z,1021.24
2016-05-02T04:49:24.733Z,1021.26
2016-05-02T04:50:24.720Z,1021.27
2016-05-02T04:51:24.708Z,1021.28
2016-05-02T04:52:24.913Z,1021.29
2016-05-02T04:53:24.900Z,1021.27
2016-05-02T04:54:24.903Z,1021.27
2016-05-02T04:55:24.890Z,1021.27
2016-05-02T04:56:24.689Z,1021.26
2016-05-02T04:57:24.677Z,1021.3
2016-05-02T04:58:24.867Z,1021.24
2016-05-02T04:59:24.869Z,1021.26
2016-05-02T05:00:24.857Z,1021.25
2016-05-02T05:01:24.657Z,1021.23
2016-05-02T05:02:24.846Z,1021.22
2016-05-02T05:03:24.833Z,1021.25
2016-05-02T05:04:24.836Z,1021.22
2016-05-02T05:05:24.823Z,1021.2
2016-05-02T05:06:24.857Z,1021.22
2016-05-02T05:07:24.610Z,1021.19
2016-05-02T05:08:24.801Z,1021.2
2016-05-02T05:09:24.788Z,1021.2
2016-05-02T05:10:24.790Z,1021.16
2016-05-02T05:11:24.574Z,1021.16
2016-05-02T05:12:24.779Z,1021.19
2016-05-02T05:13:24.767Z,1021.18
2016-05-02T05:14:24.754Z,1021.16
2016-05-02T05:15:24.554Z,1021.2
2016-05-02T05:16:24.743Z,1021.21
2016-05-02T05:17:24.731Z,1021.2
2016-05-02T05:18:24.734Z,1021.18
2016-05-02T05:19:24.736Z,1021.19
2016-05-02T05:20:24.723Z,1021.15
2016-05-02T05:21:24.710Z,1021.19
2016-05-02T05:22:24.713Z,1021.16
2016-05-02T05:23:24.497Z,1021.16
2016-05-02T05:24:24.687Z,1021.15
2016-05-02T05:25:24.689Z,1021.16
2016-05-02T05:26:24.474Z,1021.17
2016-05-02T05:27:24.680Z,1021.16
2016-05-02T05:28:24.666Z,1021.15
2016-05-02T05:29:24.450Z,1021.13
2016-05-02T05:30:24.656Z,1021.15
2016-05-02T05:31:24.644Z,1021.16
2016-05-02T05:32:24.646Z,1021.15
2016-05-02T05:33:24.649Z,1021.14
2016-05-02T05:34:24.620Z,1021.12
2016-05-02T05:35:24.623Z,1021.11
2016-05-02T05:36:24.610Z,1021.1
2016-05-02T05:37:24.596Z,1021.08
2016-05-02T05:38:24.396Z,1021.1
2016-05-02T05:39:24.587Z,1021.11
2016-05-02T05:40:24.589Z,1021.1
2016-05-02T05:41:24.577Z,1021.13
2016-05-02T05:42:24.563Z,1021.12
2016-05-02T05:43:24.362Z,1021.11
2016-05-02T05:44:24.553Z,1021.13
2016-05-02T05:45:24.556Z,1021.1
2016-05-02T05:46:24.543Z,1021.13
2016-05-02T05:47:24.326Z,1021.15
2016-05-02T05:48:24.329Z,1021.11
2016-05-02T05:49:24.520Z,1021.09
2016-05-02T05:50:24.523Z,1021.12
2016-05-02T05:51:24.666Z,1021.14
2016-05-02T05:52:24.497Z,1021.16
2016-05-02T05:53:24.499Z,1021.17
2016-05-02T05:54:24.486Z,1021.12
2016-05-02T05:55:24.473Z,1021.1
2016-05-02T05:56:24.273Z,1021.13
2016-05-02T05:57:24.261Z,1021.13
2016-05-02T05:58:24.466Z,1021.14
2016-05-02T05:59:24.249Z,1021.14
2016-05-02T06:00:24.455Z,1021.11
2016-05-02T06:01:24.239Z,1021.13
2016-05-02T06:02:24.227Z,1021.15
2016-05-02T06:03:24.229Z,1021.14
2016-05-02T06:04:24.419Z,1021.15
2016-05-02T06:05:24.407Z,1021.15
2016-05-02T06:06:24.409Z,1021.15
2016-05-02T06:07:24.412Z,1021.14
2016-05-02T06:08:24.399Z,1021.11
2016-05-02T06:09:24.386Z,1021.11
2016-05-02T06:10:24.374Z,1021.09
2016-05-02T06:11:24.173Z,1021.09
2016-05-02T06:12:24.362Z,1021.07
2016-05-02T06:13:24.350Z,1021.1
2016-05-02T06:14:24.353Z,1021.14
2016-05-02T06:15:24.136Z,1021.11
2016-05-02T06:16:24.342Z,1021.12
2016-05-02T06:17:24.142Z,1021.13
2016-05-02T06:18:24.332Z,1021.1
2016-05-02T06:19:24.319Z,1021.13
2016-05-02T06:20:24.306Z,1021.06
2016-05-02T06:21:24.589Z,1021.01
2016-05-02T06:22:24.097Z,1021.07
2016-05-02T06:23:24.085Z,1021.01
2016-05-02T06:24:24.274Z,1021.05
2016-05-02T06:25:24.278Z,1021.05
2016-05-02T06:26:24.280Z,1021.06
2016-05-02T06:27:24.064Z,1021.02
2016-05-02T06:28:24.254Z,1021.03
2016-05-02T06:29:24.038Z,1021.01
2016-05-02T06:30:24.244Z,1021.02
2016-05-02T06:31:24.247Z,1021.02
2016-05-02T06:32:24.234Z,1021.03
2016-05-02T06:33:24.221Z,1021.04
2016-05-02T06:34:24.224Z,1021.03
2016-05-02T06:35:24.007Z,1021.02
2016-05-02T06:36:24.011Z,1020.98
2016-05-02T06:37:23.998Z,1021.01
2016-05-02T06:38:24.188Z,1021
2016-05-02T06:39:24.190Z,1021
2016-05-02T06:40:23.974Z,1020.98
2016-05-02T06:41:23.962Z,1021
2016-05-02T06:42:24.168Z,1020.97
2016-05-02T06:43:24.154Z,1020.97
2016-05-02T06:44:24.142Z,1020.98
2016-05-02T06:45:23.940Z,1021
2016-05-02T06:46:23.943Z,1020.98
2016-05-02T06:47:24.133Z,1021.04
2016-05-02T06:48:23.918Z,1021.01
2016-05-02T06:49:24.123Z,1021
2016-05-02T06:50:23.908Z,1020.97
2016-05-02T06:51:24.098Z,1020.96
2016-05-02T06:52:24.100Z,1020.99
2016-05-02T06:53:24.086Z,1020.96
2016-05-02T06:54:24.089Z,1020.99
2016-05-02T06:55:24.077Z,1020.98
2016-05-02T06:56:24.064Z,1020.98
2016-05-02T06:57:23.863Z,1020.99
2016-05-02T06:58:24.054Z,1020.96
2016-05-02T06:59:24.041Z,1020.96
2016-05-02T07:00:24.044Z,1020.91
2016-05-02T07:01:24.030Z,1020.91
2016-05-02T07:02:24.033Z,1020.91
2016-05-02T07:03:23.818Z,1020.92
2016-05-02T07:04:23.805Z,1020.87
2016-05-02T07:05:24.010Z,1020.86
2016-05-02T07:06:24.372Z,1020.83
2016-05-02T07:07:23.797Z,1020.85
2016-05-02T07:08:23.784Z,1020.86
2016-05-02T07:09:23.771Z,1020.84
2016-05-02T07:10:23.774Z,1020.83
2016-05-02T07:11:23.964Z,1020.85
2016-05-02T07:12:23.763Z,1020.8
2016-05-02T07:13:23.954Z,1020.81
2016-05-02T07:14:23.956Z,1020.75
2016-05-02T07:15:23.740Z,1020.8
2016-05-02T07:16:23.930Z,1020.73
2016-05-02T07:17:23.934Z,1020.71
2016-05-02T07:18:23.733Z,1020.72
2016-05-02T07:19:23.704Z,1020.69
2016-05-02T07:20:23.706Z,1020.68
2016-05-02T07:21:23.912Z,1020.66
2016-05-02T07:22:23.697Z,1020.66
2016-05-02T07:23:23.886Z,1020.63
2016-05-02T07:24:23.890Z,1020.64
2016-05-02T07:25:23.673Z,1020.65
2016-05-02T07:26:23.864Z,1020.67
2016-05-02T07:27:23.867Z,1020.63
2016-05-02T07:28:23.853Z,1020.61
2016-05-02T07:29:23.841Z,1020.63
2016-05-02T07:30:23.640Z,1020.62
2016-05-02T07:31:23.846Z,1020.59
2016-05-02T07:32:23.629Z,1020.63
2016-05-02T07:33:23.819Z,1020.6
2016-05-02T07:34:23.619Z,1020.6
2016-05-02T07:35:23.810Z,1020.61
2016-05-02T07:36:23.812Z,1020.57
2016-05-02T07:37:23.799Z,1020.6
2016-05-02T07:38:23.786Z,1020.58
2016-05-02T07:39:23.571Z,1020.58
2016-05-02T07:40:23.776Z,1020.6
2016-05-02T07:41:23.576Z,1020.59
2016-05-02T07:42:23.766Z,1020.62
2016-05-02T07:43:23.551Z,1020.58
2016-05-02T07:44:23.756Z,1020.54
2016-05-02T07:45:23.743Z,1020.54
2016-05-02T07:46:23.746Z,1020.5
2016-05-02T07:47:23.732Z,1020.5
2016-05-02T07:48:23.517Z,1020.49
2016-05-02T07:49:23.722Z,1020.45
2016-05-02T07:50:23.522Z,1020.44
2016-05-02T07:51:24.072Z,1020.46
2016-05-02T07:52:23.700Z,1020.46
2016-05-02T07:53:23.498Z,1020.44
2016-05-02T07:54:23.689Z,1020.45
2016-05-02T07:55:23.691Z,1020.46
2016-05-02T07:56:23.460Z,1020.46
2016-05-02T07:57:23.666Z,1020.45
2016-05-02T07:58:23.669Z,1020.44
2016-05-02T07:59:23.655Z,1020.49
2016-05-02T08:00:23.642Z,1020.46
2016-05-02T08:01:23.645Z,1020.42
2016-05-02T08:02:23.632Z,1020.48
2016-05-02T08:03:23.432Z,1020.43
2016-05-02T08:04:23.419Z,1020.46
2016-05-02T08:05:23.405Z,1020.45
2016-05-02T08:06:24.112Z,1020.46
2016-05-02T08:07:23.599Z,1020.43
2016-05-02T08:08:23.602Z,1020.43
2016-05-02T08:09:23.589Z,1020.4
2016-05-02T08:10:23.590Z,1020.41
2016-05-02T08:11:23.579Z,1020.4
2016-05-02T08:12:23.565Z,1020.41
2016-05-02T08:13:23.568Z,1020.38
2016-05-02T08:14:23.555Z,1020.37
2016-05-02T08:15:23.340Z,1020.39
2016-05-02T08:16:23.342Z,1020.38
2016-05-02T08:17:23.344Z,1020.4
2016-05-02T08:18:23.534Z,1020.4
2016-05-02T08:19:23.537Z,1020.36
2016-05-02T08:20:23.525Z,1020.37
2016-05-02T08:21:23.418Z,1020.36
2016-05-02T08:22:23.311Z,1020.37
2016-05-02T08:23:23.500Z,1020.38
2016-05-02T08:24:23.504Z,1020.41
2016-05-02T08:25:23.491Z,1020.33
2016-05-02T08:26:23.478Z,1020.35
2016-05-02T08:27:23.481Z,1020.38
2016-05-02T08:28:23.467Z,1020.38
2016-05-02T08:29:23.470Z,1020.37
2016-05-02T08:30:23.458Z,1020.35
2016-05-02T08:31:23.257Z,1020.36
2016-05-02T08:32:23.244Z,1020.36
2016-05-02T08:33:23.231Z,1020.35
2016-05-02T08:34:23.437Z,1020.38
2016-05-02T08:35:23.221Z,1020.34
2016-05-02T08:36:23.427Z,1020.34
2016-05-02T08:37:23.210Z,1020.34
2016-05-02T08:38:23.214Z,1020.25
2016-05-02T08:39:23.201Z,1020.32
2016-05-02T08:40:23.203Z,1020.3
2016-05-02T08:41:23.393Z,1020.34
2016-05-02T08:42:23.380Z,1020.26
2016-05-02T08:43:23.180Z,1020.24
2016-05-02T08:44:23.370Z,1020.21
2016-05-02T08:45:23.170Z,1020.21
2016-05-02T08:46:23.360Z,1020.2
2016-05-02T08:47:23.144Z,1020.15
2016-05-02T08:48:23.350Z,1020.17
2016-05-02T08:49:23.337Z,1020.18
2016-05-02T08:50:23.136Z,1020.15
2016-05-02T08:51:23.326Z,1020.11
2016-05-02T08:52:23.126Z,1020.09
2016-05-02T08:53:23.114Z,1020.13
2016-05-02T08:54:23.116Z,1020.16
2016-05-02T08:55:23.102Z,1020.1
2016-05-02T08:56:23.293Z,1020.08
2016-05-02T08:57:23.296Z,1020.08
2016-05-02T08:58:23.080Z,1020.07
2016-05-02T08:59:23.286Z,1020.06
2016-05-02T09:00:23.273Z,1020.04
2016-05-02T09:01:23.275Z,1020.09
2016-05-02T09:02:23.059Z,1020.07
2016-05-02T09:03:23.250Z,1020.01
2016-05-02T09:04:23.252Z,1020.02
2016-05-02T09:05:23.036Z,1020.03
2016-05-02T09:06:23.274Z,1020.03
2016-05-02T09:07:23.229Z,1020
2016-05-02T09:08:23.232Z,1019.99
2016-05-02T09:09:23.235Z,1019.99
2016-05-02T09:10:23.002Z,1020.02
2016-05-02T09:11:23.208Z,1020.04
2016-05-02T09:12:22.992Z,1019.99
2016-05-02T09:13:23.198Z,1019.96
2016-05-02T09:14:23.185Z,1019.96
2016-05-02T09:15:23.187Z,1019.96
2016-05-02T09:16:23.175Z,1019.93
2016-05-02T09:17:23.178Z,1019.93
2016-05-02T09:18:23.181Z,1019.94
2016-05-02T09:19:23.151Z,1019.97
2016-05-02T09:20:22.951Z,1019.91
2016-05-02T09:21:23.001Z,1019.91
2016-05-02T09:22:22.942Z,1019.93
2016-05-02T09:23:23.147Z,1019.9
2016-05-02T09:24:22.931Z,1019.9
2016-05-02T09:25:23.136Z,1019.88
2016-05-02T09:26:23.124Z,1019.9
2016-05-02T09:27:23.111Z,1019.91
2016-05-02T09:28:22.911Z,1019.89
2016-05-02T09:29:22.898Z,1019.86
2016-05-02T09:30:22.900Z,1019.82
2016-05-02T09:31:22.902Z,1019.83
2016-05-02T09:32:23.093Z,1019.82
2016-05-02T09:33:23.081Z,1019.81
2016-05-02T09:34:23.067Z,1019.8
2016-05-02T09:35:22.866Z,1019.77
2016-05-02T09:36:23.073Z,1019.77
2016-05-02T09:37:23.060Z,1019.77
2016-05-02T09:38:22.843Z,1019.76
2016-05-02T09:39:22.847Z,1019.76
2016-05-02T09:40:23.036Z,1019.76
2016-05-02T09:41:23.038Z,1019.74
2016-05-02T09:42:23.027Z,1019.75
2016-05-02T09:43:23.029Z,1019.74
2016-05-02T09:44:23.031Z,1019.75
2016-05-02T09:45:23.019Z,1019.73
2016-05-02T09:46:23.006Z,1019.73
2016-05-02T09:47:23.009Z,1019.73
2016-05-02T09:48:22.996Z,1019.69
2016-05-02T09:49:22.982Z,1019.67
2016-05-02T09:50:22.782Z,1019.66
2016-05-02T09:51:22.769Z,1019.67
2016-05-02T09:52:22.976Z,1019.66
2016-05-02T09:53:22.759Z,1019.67
2016-05-02T09:54:22.762Z,1019.65
2016-05-02T09:55:22.748Z,1019.65
2016-05-02T09:56:22.954Z,1019.66
2016-05-02T09:57:22.941Z,1019.62
2016-05-02T09:58:22.944Z,1019.63
2016-05-02T09:59:22.931Z,1019.67
2016-05-02T10:00:22.933Z,1019.61
2016-05-02T10:01:22.921Z,1019.56
2016-05-02T10:02:22.705Z,1019.62
2016-05-02T10:03:22.911Z,1019.55
2016-05-02T10:04:22.914Z,1019.53
2016-05-02T10:05:22.697Z,1019.53
2016-05-02T10:06:22.888Z,1019.53
2016-05-02T10:07:22.890Z,1019.5
2016-05-02T10:08:22.893Z,1019.46
2016-05-02T10:09:22.897Z,1019.44
2016-05-02T10:10:22.942Z,1019.43
2016-05-02T10:11:22.769Z,1019.41
2016-05-02T10:12:23.018Z,1019.42
2016-05-02T10:13:22.846Z,1019.43
2016-05-02T10:14:23.084Z,1019.42
2016-05-02T10:15:23.086Z,1019.38
2016-05-02T10:16:22.886Z,1019.39
2016-05-02T10:17:23.108Z,1019.38
2016-05-02T10:18:23.110Z,1019.34
2016-05-02T10:19:22.922Z,1019.31
2016-05-02T10:20:23.117Z,1019.31
2016-05-02T10:21:22.923Z,1019.29
2016-05-02T10:22:23.119Z,1019.3
2016-05-02T10:23:23.128Z,1019.28
2016-05-02T10:24:22.915Z,1019.27
2016-05-02T10:25:22.920Z,1019.24
2016-05-02T10:26:23.112Z,1019.25
2016-05-02T10:27:23.117Z,1019.24
2016-05-02T10:28:22.903Z,1019.24
2016-05-02T10:29:22.908Z,1019.2
2016-05-02T10:30:23.098Z,1019.17
2016-05-02T10:31:22.898Z,1019.16
2016-05-02T10:32:22.886Z,1019.13
2016-05-02T10:33:23.077Z,1019.1
2016-05-02T10:34:23.080Z,1019.15
2016-05-02T10:35:22.864Z,1019.1
2016-05-02T10:36:23.069Z,1019.11
2016-05-02T10:37:23.058Z,1019.11
2016-05-02T10:38:23.060Z,1019.06
2016-05-02T10:39:23.047Z,1019.1
2016-05-02T10:40:23.049Z,1019.09
2016-05-02T10:41:22.833Z,1019.05
2016-05-02T10:42:23.039Z,1019.05
2016-05-02T10:43:22.824Z,1019.06
2016-05-02T10:44:22.826Z,1019.06
2016-05-02T10:45:23.016Z,1019
2016-05-02T10:46:23.018Z,1018.98
2016-05-02T10:47:22.802Z,1018.95
2016-05-02T10:48:23.008Z,1018.97
2016-05-02T10:49:22.808Z,1019.01
2016-05-02T10:50:22.795Z,1018.95
2016-05-02T10:51:22.798Z,1018.95
2016-05-02T10:52:22.784Z,1018.93
2016-05-02T10:53:22.772Z,1018.9
2016-05-02T10:54:22.978Z,1018.9
2016-05-02T10:55:22.761Z,1018.9
2016-05-02T10:56:22.967Z,1018.87
2016-05-02T10:57:22.954Z,1018.9
2016-05-02T10:58:22.957Z,1018.87
2016-05-02T10:59:22.945Z,1018.79
2016-05-02T11:00:22.947Z,1018.79
2016-05-02T11:01:22.934Z,1018.81
2016-05-02T11:02:22.733Z,1018.8
2016-05-02T11:03:22.720Z,1018.78
2016-05-02T11:04:22.927Z,1018.76
2016-05-02T11:05:22.914Z,1018.74
2016-05-02T11:06:22.714Z,1018.72
2016-05-02T11:07:22.903Z,1018.74
2016-05-02T11:08:22.906Z,1018.71
2016-05-02T11:09:22.893Z,1018.74
2016-05-02T11:10:22.896Z,1018.67
2016-05-02T11:11:22.882Z,1018.7
2016-05-02T11:12:22.885Z,1018.67
2016-05-02T11:13:22.873Z,1018.68
2016-05-02T11:14:22.672Z,1018.66
2016-05-02T11:15:22.863Z,1018.61
2016-05-02T11:16:22.865Z,1018.64
2016-05-02T11:17:22.852Z,1018.66
2016-05-02T11:18:22.652Z,1018.6
2016-05-02T11:19:22.638Z,1018.63
2016-05-02T11:20:22.845Z,1018.61
2016-05-02T11:21:22.629Z,1018.58
2016-05-02T11:22:22.834Z,1018.58
2016-05-02T11:23:22.829Z,1018.6
2016-05-02T11:24:22.613Z,1018.56
2016-05-02T11:25:22.819Z,1018.54
2016-05-02T11:26:22.806Z,1018.52
2016-05-02T11:27:22.606Z,1018.53
2016-05-02T11:28:22.795Z,1018.5
2016-05-02T11:29:22.798Z,1018.48
2016-05-02T11:30:22.786Z,1018.48
2016-05-02T11:31:22.788Z,1018.43
2016-05-02T11:32:22.776Z,1018.44
2016-05-02T11:33:22.575Z,1018.45
2016-05-02T11:34:22.765Z,1018.42
2016-05-02T11:35:22.564Z,1018.41
2016-05-02T11:36:22.755Z,1018.37
2016-05-02T11:37:22.758Z,1018.42
2016-05-02T11:38:22.558Z,1018.36
2016-05-02T11:39:22.544Z,1018.4
2016-05-02T11:40:22.734Z,1018.36
2016-05-02T11:41:22.534Z,1018.35
2016-05-02T11:42:22.521Z,1018.34
2016-05-02T11:43:22.523Z,1018.34
2016-05-02T11:44:22.511Z,1018.33
2016-05-02T11:45:22.716Z,1018.28
2016-05-02T11:46:22.719Z,1018.26
2016-05-02T11:47:22.503Z,1018.3
2016-05-02T11:48:22.693Z,1018.3
2016-05-02T11:49:22.696Z,1018.23
2016-05-02T11:50:22.496Z,1018.25
2016-05-02T11:51:22.685Z,1018.23
2016-05-02T11:52:22.485Z,1018.2
2016-05-02T11:53:22.676Z,1018.19
2016-05-02T11:54:22.475Z,1018.2
2016-05-02T11:55:22.665Z,1018.18
2016-05-02T11:56:22.668Z,1018.15
2016-05-02T11:57:22.467Z,1018.17
2016-05-02T11:58:22.657Z,1018.15
2016-05-02T11:59:22.660Z,1018.15
2016-05-02T12:00:22.445Z,1018.1
2016-05-02T12:01:22.650Z,1018.09
2016-05-02T12:02:22.637Z,1018.01
2016-05-02T12:03:22.421Z,1018.02
2016-05-02T12:04:22.424Z,1018.02
2016-05-02T12:05:22.426Z,1018
2016-05-02T12:06:22.633Z,1017.98
2016-05-02T12:07:22.417Z,1018.02
2016-05-02T12:08:22.404Z,1018
2016-05-02T12:09:22.406Z,1018.02